createdAt,value
2022-11-05T06:34:54.264Z,67.60
2022-11-05T06:37:20.842Z,68.12
2022-11-05T06:39:47.504Z,69.38
2022-11-05T06:42:18.696Z,67.42
2022-11-05T06:44:46.512Z,68.75
2022-11-05T06:47:13.115Z,69.22
2022-11-05T06:49:39.731Z,69.43
2022-11-05T06:52:06.409Z,69.89
2022-11-05T06:54:32.917Z,69.39
2022-11-05T06:56:59.551Z,69.39
2022-11-05T06:59:26.074Z,69.51
2022-11-05T07:01:53.256Z,70.02
2022-11-05T07:04:19.905Z,69.18
2022-11-05T07:06:46.437Z,69.42
2022-11-05T07:09:13.424Z,69.33
2022-11-05T07:11:40.287Z,69.67
2022-11-05T07:14:06.859Z,70.26
2022-11-05T07:16:33.361Z,69.08
2022-11-05T07:19:00.067Z,69.16
2022-11-05T07:21:26.738Z,69.21
2022-11-05T07:23:53.268Z,68.53
2022-11-05T07:26:20.237Z,68.72
2022-11-05T07:28:46.850Z,68.14
2022-11-05T07:31:13.443Z,68.48
2022-11-05T07:33:40.154Z,69.28
2022-11-05T07:36:06.824Z,68.92
2022-11-05T07:38:33.426Z,68.64
2022-11-05T07:41:00.452Z,67.93
2022-11-05T07:43:27.198Z,66.56
2022-11-05T07:45:53.935Z,66.63
2022-11-05T07:48:20.995Z,67.16
2022-11-05T07:50:51.954Z,68.26
2022-11-05T07:53:20.654Z,67.65
2022-11-05T07:55:47.391Z,68.78
2022-11-05T07:58:14.578Z,68.78
2022-11-05T08:00:41.366Z,69.26
2022-11-05T08:03:14.451Z,68.46
2022-11-05T08:05:44.719Z,68.03
2022-11-05T08:08:14.495Z,67.47
2022-11-05T08:10:41.293Z,67.82
2022-11-05T08:13:08.477Z,68.49
2022-11-05T08:15:35.978Z,69.64
2022-11-05T08:18:07.493Z,69.04
2022-11-05T08:20:35.156Z,68.77
2022-11-05T08:23:01.944Z,68.94
2022-11-05T08:25:29.269Z,67.30
2022-11-05T08:28:05.160Z,67.83
2022-11-05T08:30:32.644Z,67.92
2022-11-05T08:33:08.049Z,67.70
2022-11-05T08:35:36.331Z,67.76
2022-11-05T08:38:05.711Z,67.99
2022-11-05T08:40:34.728Z,67.98
2022-11-05T08:43:03.416Z,66.60
2022-11-05T08:45:31.037Z,67.88
2022-11-05T08:48:02.923Z,67.59
2022-11-05T08:50:29.900Z,67.20
2022-11-05T08:52:56.621Z,67.75
2022-11-05T08:55:23.975Z,66.90
2022-11-05T08:58:01.261Z,68.21
2022-11-05T09:00:30.535Z,67.55
2022-11-05T09:03:01.822Z,65.81
2022-11-05T09:05:29.144Z,67.28
2022-11-05T09:08:00.805Z,67.90
2022-11-05T09:10:28.863Z,65.58
2022-11-05T09:12:55.824Z,67.25
2022-11-05T09:15:23.323Z,66.69
2022-11-05T09:17:50.738Z,67.68
2022-11-05T09:20:17.732Z,67.59
2022-11-05T09:22:44.433Z,68.11
2022-11-05T09:25:11.543Z,67.43
2022-11-05T09:27:38.375Z,66.39
2022-11-05T09:30:05.714Z,66.45
2022-11-05T09:32:32.826Z,66.25
2022-11-05T09:35:02.139Z,66.58
2022-11-05T09:37:29.440Z,66.04
2022-11-05T09:39:56.083Z,64.86
2022-11-05T09:42:29.128Z,66.35
2022-11-05T09:45:19.230Z,64.91
2022-11-05T09:47:59.513Z,63.69
2022-11-05T09:50:34.789Z,64.26
2022-11-05T09:53:02.307Z,64.34
2022-11-05T09:55:35.635Z,64.23
2022-11-05T09:58:10.997Z,64.35
2022-11-05T10:00:37.866Z,64.46
2022-11-05T10:03:08.018Z,64.53
2022-11-05T10:05:37.329Z,64.27
2022-11-05T10:08:17.192Z,62.49
2022-11-05T10:11:09.482Z,62.43
2022-11-05T10:13:56.330Z,61.36
2022-11-05T10:16:31.021Z,64.14
2022-11-05T10:19:06.497Z,63.37
2022-11-05T10:22:04.121Z,61.50
2022-11-05T10:24:21.281Z,62.35
2022-11-05T10:26:51.294Z,62.07
2022-11-05T10:29:30.280Z,62.49
2022-11-05T10:31:58.800Z,61.51
2022-11-05T10:34:33.505Z,60.16
2022-11-05T10:37:00.885Z,60.77
2022-11-05T10:39:28.887Z,59.64
2022-11-05T10:42:14.103Z,60.31
2022-11-05T10:44:48.601Z,58.38
2022-11-05T10:47:52.656Z,57.83
2022-11-05T10:50:27.807Z,57.11
2022-11-05T10:53:27.128Z,56.90
2022-11-05T10:55:58.718Z,57.09
2022-11-05T10:58:31.777Z,57.75
2022-11-05T11:01:04.148Z,57.83
2022-11-05T11:03:33.949Z,56.70
2022-11-05T11:06:22.034Z,56.13
2022-11-05T11:08:50.212Z,54.55
2022-11-05T11:11:46.128Z,55.50
2022-11-05T11:14:12.683Z,54.70
2022-11-05T11:16:47.917Z,55.35
2022-11-05T11:19:36.454Z,55.58
2022-11-05T11:22:03.232Z,56.03
2022-11-05T11:24:33.536Z,54.55
2022-11-05T11:27:08.722Z,53.88
2022-11-05T11:29:40.509Z,52.05
2022-11-05T11:32:15.074Z,53.57
2022-11-05T11:34:44.603Z,52.79
2022-11-05T11:37:21.727Z,53.62
2022-11-05T11:39:53.756Z,53.09
2022-11-05T11:42:38.709Z,52.92
2022-11-05T11:45:25.635Z,53.05
2022-11-05T11:47:52.450Z,52.97
2022-11-05T11:50:32.843Z,54.11
2022-11-05T11:53:25.367Z,53.86
2022-11-05T11:55:55.113Z,53.89
2022-11-05T11:58:23.500Z,53.10
2022-11-05T12:01:00.719Z,52.79
2022-11-05T12:03:48.132Z,51.43
2022-11-05T12:06:27.398Z,52.77
2022-11-05T12:09:16.766Z,51.00
2022-11-05T12:11:53.203Z,52.69
2022-11-05T12:14:28.446Z,52.67
2022-11-05T12:17:13.411Z,53.26
2022-11-05T12:20:01.733Z,51.92
2022-11-05T12:22:46.970Z,53.03
2022-11-05T12:25:22.783Z,52.00
2022-11-05T12:28:01.627Z,53.02
2022-11-05T12:30:37.215Z,52.49
2022-11-05T12:33:19.184Z,52.03
2022-11-05T12:35:48.879Z,51.93
2022-11-05T12:38:56.329Z,52.58
2022-11-05T12:41:41.846Z,52.84
2022-11-05T12:44:33.834Z,52.72
2022-11-05T12:47:15.459Z,52.11
2022-11-05T12:49:48.328Z,51.54
2022-11-05T12:52:33.524Z,51.05
2022-11-05T12:55:13.663Z,52.96
2022-11-05T12:57:43.243Z,51.64
2022-11-05T13:00:25.000Z,50.88
2022-11-05T13:03:13.356Z,51.07
2022-11-05T13:05:46.369Z,51.14
2022-11-05T13:08:18.928Z,51.90
2022-11-05T13:10:58.233Z,52.71
2022-11-05T13:13:28.506Z,52.29
2022-11-05T13:15:59.255Z,53.63
2022-11-05T13:18:50.126Z,53.43
2022-11-05T13:21:21.570Z,54.91
2022-11-05T13:23:54.784Z,55.25
2022-11-05T13:26:29.509Z,54.04
2022-11-05T13:29:03.807Z,53.19
2022-11-05T13:31:37.300Z,54.74
2022-11-05T13:34:10.833Z,55.93
2022-11-05T13:37:06.448Z,54.43
2022-11-05T13:39:41.306Z,57.51
2022-11-05T13:42:20.180Z,55.53
2022-11-05T13:45:14.670Z,55.02
2022-11-05T13:48:02.666Z,54.98
2022-11-05T13:51:07.436Z,54.45
2022-11-05T13:53:55.800Z,53.95
2022-11-05T13:56:34.458Z,54.31
2022-11-05T13:59:20.019Z,53.55
2022-11-05T14:01:58.742Z,53.02
2022-11-05T14:04:35.473Z,52.97
2022-11-05T14:07:23.949Z,51.46
2022-11-05T14:09:58.519Z,50.85
2022-11-05T14:12:38.064Z,50.33
2022-11-05T14:15:19.791Z,50.31
2022-11-05T14:18:18.427Z,52.28
2022-11-05T14:20:58.433Z,52.14
2022-11-05T14:23:27.696Z,53.04
2022-11-05T14:25:54.469Z,52.19
2022-11-05T14:28:36.517Z,51.03
2022-11-05T14:31:13.141Z,51.95
2022-11-05T14:33:40.009Z,51.33
2022-11-05T14:36:21.939Z,50.92
2022-11-05T14:38:51.669Z,51.78
2022-11-05T14:41:19.989Z,51.70
2022-11-05T14:43:59.331Z,52.72
2022-11-05T14:46:43.201Z,52.69
2022-11-05T14:49:38.518Z,52.41
2022-11-05T14:52:11.206Z,52.75
2022-11-05T14:54:50.802Z,56.43
2022-11-05T14:57:53.203Z,57.80
2022-11-05T15:00:29.085Z,57.57
2022-11-05T15:03:04.239Z,60.03
2022-11-05T15:05:51.830Z,58.30
2022-11-05T15:08:54.948Z,58.60
2022-11-05T15:11:29.191Z,59.64
2022-11-05T15:13:55.764Z,59.79
2022-11-05T15:16:42.515Z,59.63
2022-11-05T15:19:19.771Z,59.02
2022-11-05T15:21:46.756Z,58.92
2022-11-05T15:24:19.417Z,59.53
2022-11-05T15:27:02.241Z,59.67
2022-11-05T15:29:30.522Z,59.47
2022-11-05T15:31:58.543Z,59.40
2022-11-05T15:34:28.881Z,60.25
2022-11-05T15:37:00.004Z,62.29
2022-11-05T15:39:42.594Z,62.15
2022-11-05T15:42:16.241Z,61.72
2022-11-05T15:44:48.089Z,60.84
2022-11-05T15:47:14.684Z,61.78
2022-11-05T15:49:45.761Z,61.31
2022-11-05T15:52:14.469Z,60.30
2022-11-05T15:54:41.965Z,59.37
2022-11-05T15:57:21.230Z,59.74
2022-11-05T15:59:48.557Z,59.03
2022-11-05T16:02:32.459Z,59.29
2022-11-05T16:05:02.572Z,59.50
2022-11-05T16:07:30.295Z,59.34
2022-11-05T16:09:59.921Z,59.24
2022-11-05T16:12:36.832Z,59.66
2022-11-05T16:15:09.477Z,58.70
2022-11-05T16:17:49.264Z,59.06
2022-11-05T16:20:36.053Z,59.30
2022-11-05T16:23:07.427Z,59.78
2022-11-05T16:25:45.582Z,59.31
2022-11-05T16:28:30.157Z,58.71
2022-11-05T16:30:59.561Z,59.46
2022-11-05T16:33:31.669Z,59.42
2022-11-05T16:35:58.489Z,59.34
2022-11-05T16:38:25.316Z,60.21
2022-11-05T16:40:53.109Z,59.48
2022-11-05T16:43:23.676Z,59.47
2022-11-05T16:45:53.689Z,59.40
2022-11-05T16:48:20.939Z,59.63
2022-11-05T16:50:47.691Z,59.92
2022-11-05T16:53:14.391Z,59.60
2022-11-05T16:55:42.253Z,60.71
2022-11-05T16:58:24.016Z,60.78
2022-11-05T17:00:52.772Z,60.72
2022-11-05T17:03:19.404Z,60.62
2022-11-05T17:05:45.988Z,61.69
2022-11-05T17:08:12.809Z,60.59
2022-11-05T17:10:39.659Z,60.42
2022-11-05T17:13:06.128Z,61.97
2022-11-05T17:15:37.067Z,60.19
2022-11-05T17:18:06.205Z,60.56
2022-11-05T17:20:39.399Z,60.42
2022-11-05T17:23:09.509Z,60.50
2022-11-05T17:25:36.575Z,61.23
2022-11-05T17:28:03.448Z,61.69
2022-11-05T17:30:30.285Z,60.81
2022-11-05T17:32:57.075Z,61.38
2022-11-05T17:35:23.726Z,61.17
2022-11-05T17:37:50.769Z,61.56
2022-11-05T17:40:20.066Z,61.79
2022-11-05T17:42:46.783Z,60.49
2022-11-05T17:45:13.901Z,59.26
2022-11-05T17:47:41.855Z,60.08
2022-11-05T17:50:11.375Z,60.85
2022-11-05T17:52:38.124Z,61.10
2022-11-05T17:55:05.738Z,61.63
2022-11-05T17:57:32.363Z,61.42
2022-11-05T17:59:58.970Z,60.39
2022-11-05T18:02:27.755Z,60.88
2022-11-05T18:04:54.546Z,62.35
2022-11-05T18:07:21.045Z,61.89
2022-11-05T18:09:48.021Z,61.84
2022-11-05T18:12:14.538Z,60.96
2022-11-05T18:14:41.175Z,62.28
2022-11-05T18:17:09.507Z,61.44
2022-11-05T18:19:38.283Z,61.46
2022-11-05T18:22:04.991Z,62.34
2022-11-05T18:24:32.240Z,61.96
2022-11-05T18:26:59.109Z,61.59
2022-11-05T18:29:25.821Z,61.88
2022-11-05T18:31:52.369Z,61.86
2022-11-05T18:34:18.964Z,61.24
2022-11-05T18:36:45.759Z,62.31
2022-11-05T18:39:12.537Z,63.28
2022-11-05T18:41:39.272Z,63.09
2022-11-05T18:44:05.924Z,62.99
2022-11-05T18:46:57.193Z,63.32
2022-11-05T18:49:20.506Z,62.62
2022-11-05T18:51:47.133Z,64.60
2022-11-05T18:54:14.408Z,64.86
2022-11-05T18:56:45.404Z,65.24
2022-11-05T19:02:06.022Z,64.54
2022-11-05T19:04:34.624Z,62.84
2022-11-05T19:07:04.783Z,63.59
2022-11-05T19:09:31.846Z,62.37
2022-11-05T19:11:58.422Z,62.28
2022-11-05T19:14:25.153Z,62.12
2022-11-05T19:16:51.721Z,61.44
2022-11-05T19:19:18.374Z,62.32
2022-11-05T19:21:44.994Z,61.89
2022-11-05T19:24:16.731Z,62.04
2022-11-05T19:26:44.191Z,61.54
2022-11-05T19:29:10.764Z,61.63
2022-11-05T19:31:37.365Z,61.79
2022-11-05T19:34:05.392Z,62.43
2022-11-05T19:36:33.345Z,61.61
2022-11-05T19:39:03.946Z,61.60
2022-11-05T19:41:31.019Z,62.58
2022-11-05T19:44:01.883Z,62.69
2022-11-05T19:46:29.788Z,61.90
2022-11-05T19:48:57.107Z,62.35
2022-11-05T19:51:27.035Z,63.08
2022-11-05T19:53:55.269Z,62.35
2022-11-05T19:56:24.709Z,61.34
2022-11-05T19:58:53.218Z,62.15
2022-11-05T20:01:22.355Z,62.13
2022-11-05T20:03:49.627Z,62.93
2022-11-05T20:06:19.794Z,62.72
2022-11-05T20:09:15.167Z,62.49
2022-11-05T20:11:37.403Z,61.94
2022-11-05T20:14:05.511Z,62.59
2022-11-05T20:16:40.427Z,62.16
2022-11-05T20:19:10.181Z,62.68
2022-11-05T20:21:37.553Z,62.22
2022-11-05T20:24:04.917Z,62.29
2022-11-05T20:26:31.781Z,62.35
2022-11-05T20:28:58.838Z,62.77
2022-11-05T20:31:25.561Z,63.37
2022-11-05T20:33:52.410Z,62.58
2022-11-05T20:36:22.240Z,62.69
2022-11-05T20:38:50.947Z,62.26
2022-11-05T20:41:18.417Z,62.44
2022-11-05T20:43:46.855Z,62.80
2022-11-05T20:46:16.363Z,66.19
2022-11-05T20:48:44.014Z,63.34
2022-11-05T20:51:17.712Z,62.73
2022-11-05T20:53:46.208Z,62.50
2022-11-05T20:56:21.065Z,62.42
2022-11-05T20:58:47.673Z,62.57
2022-11-05T21:01:16.514Z,62.74
2022-11-05T21:03:44.592Z,63.98
2022-11-05T21:06:11.749Z,64.51
2022-11-05T21:08:39.066Z,64.03
2022-11-05T21:11:07.099Z,63.85
2022-11-05T21:13:34.087Z,64.69
2022-11-05T21:16:01.507Z,63.86
2022-11-05T21:18:31.056Z,63.77
2022-11-05T21:20:59.839Z,63.26
2022-11-05T21:23:29.722Z,63.02
2022-11-05T21:25:56.320Z,63.06
2022-11-05T21:28:23.367Z,63.15
2022-11-05T21:30:49.937Z,62.85
2022-11-05T21:33:18.046Z,62.70
2022-11-05T21:35:47.256Z,62.15
2022-11-05T21:38:16.637Z,62.60
2022-11-05T21:40:44.495Z,63.07
2022-11-05T21:43:12.131Z,62.39
2022-11-05T21:45:40.451Z,62.41
2022-11-05T21:48:07.928Z,62.84
2022-11-05T21:50:53.912Z,63.15
2022-11-05T21:53:38.851Z,63.82
2022-11-05T21:56:33.065Z,64.07
2022-11-05T21:59:18.032Z,65.05
2022-11-05T22:01:44.755Z,64.92
2022-11-05T22:04:11.526Z,64.45
2022-11-05T22:06:38.100Z,63.64
2022-11-05T22:09:04.717Z,62.72
2022-11-05T22:11:36.065Z,63.02
2022-11-05T22:14:02.860Z,63.45
2022-11-05T22:16:29.357Z,63.06
2022-11-05T22:18:59.840Z,62.32
2022-11-05T22:21:26.497Z,63.12
2022-11-05T22:23:53.659Z,62.74
2022-11-05T22:26:20.625Z,62.55
2022-11-05T22:28:47.450Z,62.13
2022-11-05T22:31:14.723Z,63.29
2022-11-05T22:33:42.090Z,63.68
2022-11-05T22:36:09.659Z,67.61
2022-11-05T22:38:36.659Z,66.55
2022-11-05T22:41:12.279Z,64.38
2022-11-05T22:43:39.478Z,63.80
2022-11-05T22:46:08.593Z,63.50
2022-11-05T22:48:38.110Z,63.74
2022-11-05T22:51:11.132Z,63.69
2022-11-05T22:53:38.866Z,63.72
2022-11-05T22:56:08.053Z,63.83
2022-11-05T22:58:34.775Z,64.18
2022-11-05T23:01:01.927Z,63.83
2022-11-05T23:03:29.847Z,63.45
2022-11-05T23:06:27.606Z,63.28
2022-11-05T23:09:12.675Z,63.78
2022-11-05T23:11:41.055Z,64.60
2022-11-05T23:14:10.215Z,64.15
2022-11-05T23:16:55.814Z,63.91
2022-11-05T23:19:41.592Z,63.73
2022-11-05T23:22:39.521Z,66.38
2022-11-05T23:25:09.262Z,63.90
2022-11-05T23:27:38.156Z,63.52
2022-11-05T23:30:09.501Z,64.80
2022-11-05T23:32:36.558Z,64.04
2022-11-05T23:35:03.785Z,64.11
2022-11-05T23:37:50.137Z,63.59
2022-11-05T23:40:20.244Z,64.66
2022-11-05T23:43:05.926Z,64.43
2022-11-05T23:45:47.989Z,64.09
2022-11-05T23:48:36.267Z,65.08
2022-11-05T23:51:04.445Z,64.50
2022-11-05T23:53:33.235Z,65.08
2022-11-05T23:56:07.200Z,67.64
2022-11-05T23:58:34.199Z,68.81
